PORTS® Data Listing: 8519483 Bergen Point West Reach, NY

CO-OPS RAW PORTS DATA

************************      PRELIMINARY DATA      ************************** 

     THIS RAW DATA HAS NOT BEEN SUBJECT TO THE NATIONAL OCEAN SERVICE'S        
     QUALITY CONTROL OR QUALITY ASSURANCE PROCEDURES AND DOES NOT MEET         
     THE CRITERIA AND STANDARDS OF OFFICIAL NATIONAL OCEAN SERVICE             
     DATA.  IT IS RELEASED FOR LIMITED PUBLIC USE AS PRELIMINARY DATA TO       
     BE USED ONLY WITH APPROPRIATE CAUTION.                                    

************************      PRELIMINARY DATA      ************************** 


       CD   -   Calendar date
       T    -   Time
       TZ   -   Timezone
       PW   -   Predicted water level (feet above MLLW)
       OW   -   Observed water level (feet above MLLW)
       WS   -   Wind speed (knots)
       WD   -   Wind direction (degrees true)
       WG   -   Wind gust (knots)
       AT   -   Air temperature (degrees farenheit)
       WT   -   Water temperature (degrees farenheit)
       AP   -   Air pressure (millibars)
       SA   -   Salinty (PSU - Practical Salinity Units)
       SG   -   Specific gravity
       RH   -   Relative humidity
       AG   -   Air gap (feet)
       VI   -   Visibility (nautical miles)

       ** NOTE **
       A variable that has its data fields filled with "9"s, indicates that
       data was not collected for that sample period.
       **********


STATION NAME: Bergen Point West Reach (8519483)
****************************************************************************************************
    CD       T    TZ    PW     OW    WS   WD   WG    AT    WT    AP    SA    SG     RH    AG   VI
****************************************************************************************************
2019/10/17 10:24 EDT    5.66   4.43 -999 -999 -999  54.1  63.1  993.5 -9.9 -9.999 -99.9 -99.99 -9.99
2019/10/17 10:30 EDT    5.66   4.43 -999 -999 -999  54.0  63.1  993.4 -9.9 -9.999 -99.9 -99.99 -9.99
2019/10/17 10:36 EDT    5.66   4.46 -999 -999 -999  54.0  63.1  993.3 -9.9 -9.999 -99.9 -99.99 -9.99
2019/10/17 10:42 EDT    5.65   4.46 -999 -999 -999  54.7  63.1  993.3 -9.9 -9.999 -99.9 -99.99 -9.99
2019/10/17 10:48 EDT    5.64   4.48 -999 -999 -999  54.7  63.1  993.2 -9.9 -9.999 -99.9 -99.99 -9.99
2019/10/17 10:54 EDT    5.62   4.47 -999 -999 -999  55.0  63.1  993.2 -9.9 -9.999 -99.9 -99.99 -9.99
2019/10/17 11:00 EDT    5.60   4.46 -999 -999 -999  55.4  63.0  993.4 -9.9 -9.999 -99.9 -99.99 -9.99
2019/10/17 11:06 EDT    5.58   4.44 -999 -999 -999  55.2  63.0  993.4 -9.9 -9.999 -99.9 -99.99 -9.99
2019/10/17 11:12 EDT    5.55   4.41 -999 -999 -999  55.2  63.0  993.6 -9.9 -9.999 -99.9 -99.99 -9.99
2019/10/17 11:18 EDT    5.52   4.40 -999 -999 -999  55.2  62.8  993.5 -9.9 -9.999 -99.9 -99.99 -9.99
2019/10/17 11:24 EDT    5.48   4.39 -999 -999 -999  55.0  62.8  993.6 -9.9 -9.999 -99.9 -99.99 -9.99
2019/10/17 11:30 EDT    5.45   4.39 -999 -999 -999  55.4  62.8  993.7 -9.9 -9.999 -99.9 -99.99 -9.99
2019/10/17 11:36 EDT    5.40   4.38 -999 -999 -999  55.4  62.8  993.7 -9.9 -9.999 -99.9 -99.99 -9.99
2019/10/17 11:42 EDT    5.36   4.34 -999 -999 -999  55.2  62.8  993.7 -9.9 -9.999 -99.9 -99.99 -9.99
2019/10/17 11:48 EDT    5.31   4.33 -999 -999 -999  55.6  62.8  993.7 -9.9 -9.999 -99.9 -99.99 -9.99
2019/10/17 11:54 EDT    5.26   4.31 -999 -999 -999  55.9  62.8  993.6 -9.9 -9.999 -99.9 -99.99 -9.99
2019/10/17 12:00 EDT    5.21   4.30 -999 -999 -999  56.5  62.8  993.6 -9.9 -9.999 -99.9 -99.99 -9.99
2019/10/17 12:06 EDT    5.15   4.26 -999 -999 -999  56.3  62.8  993.6 -9.9 -9.999 -99.9 -99.99 -9.99
2019/10/17 12:12 EDT    5.09   4.22 -999 -999 -999  56.3  62.8  993.7 -9.9 -9.999 -99.9 -99.99 -9.99
2019/10/17 12:18 EDT    5.02   4.19 -999 -999 -999  56.5  62.8  993.6 -9.9 -9.999 -99.9 -99.99 -9.99
2019/10/17 12:24 EDT    4.96   4.15 -999 -999 -999  56.8  62.8  993.6 -9.9 -9.999 -99.9 -99.99 -9.99
2019/10/17 12:30 EDT    4.89   4.09 -999 -999 -999  57.2  62.8  993.5 -9.9 -9.999 -99.9 -99.99 -9.99
2019/10/17 12:36 EDT    4.81   4.03 -999 -999 -999  57.4  62.8  993.4 -9.9 -9.999 -99.9 -99.99 -9.99
2019/10/17 12:42 EDT    4.73   3.95 -999 -999 -999  57.2  62.8  993.4 -9.9 -9.999 -99.9 -99.99 -9.99
2019/10/17 12:48 EDT    4.65   3.90 -999 -999 -999  57.2  62.8  993.4 -9.9 -9.999 -99.9 -99.99 -9.99
2019/10/17 12:54 EDT    4.57   3.84 -999 -999 -999  57.4  62.8  993.4 -9.9 -9.999 -99.9 -99.99 -9.99
2019/10/17 13:00 EDT    4.48   3.76 -999 -999 -999  57.4  62.8  993.4 -9.9 -9.999 -99.9 -99.99 -9.99
2019/10/17 13:06 EDT    4.39   3.67 -999 -999 -999  57.4  62.8  993.3 -9.9 -9.999 -99.9 -99.99 -9.99
2019/10/17 13:12 EDT    4.29   3.55 -999 -999 -999  57.4  62.8  993.3 -9.9 -9.999 -99.9 -99.99 -9.99
2019/10/17 13:18 EDT    4.20   3.47 -999 -999 -999  57.7  62.6  993.4 -9.9 -9.999 -99.9 -99.99 -9.99
2019/10/17 13:24 EDT    4.09   3.35 -999 -999 -999  57.9  62.6  993.5 -9.9 -9.999 -99.9 -99.99 -9.99
2019/10/17 13:30 EDT    3.99   3.20 -999 -999 -999  57.9  62.6  993.5 -9.9 -9.999 -99.9 -99.99 -9.99
2019/10/17 13:36 EDT    3.88   3.04 -999 -999 -999  58.1  62.6  993.6 -9.9 -9.999 -99.9 -99.99 -9.99
2019/10/17 13:42 EDT    3.77   2.89 -999 -999 -999  57.7  62.6  993.7 -9.9 -9.999 -99.9 -99.99 -9.99
2019/10/17 13:48 EDT    3.66   2.76 -999 -999 -999  58.1  62.6  993.9 -9.9 -9.999 -99.9 -99.99 -9.99
2019/10/17 13:54 EDT    3.54   2.64 -999 -999 -999  58.3  62.6  994.0 -9.9 -9.999 -99.9 -99.99 -9.99
2019/10/17 14:00 EDT    3.43   2.46 -999 -999 -999  57.9  62.6  994.2 -9.9 -9.999 -99.9 -99.99 -9.99
2019/10/17 14:06 EDT    3.31   2.32 -999 -999 -999  57.7  62.6  994.4 -9.9 -9.999 -99.9 -99.99 -9.99
2019/10/17 14:12 EDT    3.19   2.18 -999 -999 -999  57.6  62.6  994.5 -9.9 -9.999 -99.9 -99.99 -9.99
2019/10/17 14:18 EDT    3.07   2.02 -999 -999 -999  57.7  62.6  994.5 -9.9 -9.999 -99.9 -99.99 -9.99
2019/10/17 14:24 EDT    2.95   1.89 -999 -999 -999  58.1  62.4  994.8 -9.9 -9.999 -99.9 -99.99 -9.99
2019/10/17 14:30 EDT    2.83   1.74 -999 -999 -999  57.9  62.4  994.9 -9.9 -9.999 -99.9 -99.99 -9.99
2019/10/17 14:36 EDT    2.71   1.59 -999 -999 -999  57.4  62.4  994.9 -9.9 -9.999 -99.9 -99.99 -9.99
2019/10/17 14:42 EDT    2.59   1.44 -999 -999 -999  57.4  62.4  995.0 -9.9 -9.999 -99.9 -99.99 -9.99
2019/10/17 14:48 EDT    2.47   1.30 -999 -999 -999  57.4  62.4  995.1 -9.9 -9.999 -99.9 -99.99 -9.99
2019/10/17 14:54 EDT    2.36   1.16 -999 -999 -999  57.4  62.4  995.4 -9.9 -9.999 -99.9 -99.99 -9.99
2019/10/17 15:00 EDT    2.24   1.01 -999 -999 -999  57.4  62.2  995.4 -9.9 -9.999 -99.9 -99.99 -9.99
2019/10/17 15:06 EDT    2.13   0.88 -999 -999 -999  57.0  62.2  995.4 -9.9 -9.999 -99.9 -99.99 -9.99
2019/10/17 15:12 EDT    2.02   0.76 -999 -999 -999  57.0  62.2  995.4 -9.9 -9.999 -99.9 -99.99 -9.99
2019/10/17 15:18 EDT    1.91   0.61 -999 -999 -999  56.8  62.1  995.4 -9.9 -9.999 -99.9 -99.99 -9.99
2019/10/17 15:24 EDT    1.81   0.49 -999 -999 -999  57.0  62.1  995.5 -9.9 -9.999 -99.9 -99.99 -9.99
2019/10/17 15:30 EDT    1.71   0.34 -999 -999 -999  57.0  62.1  995.6 -9.9 -9.999 -99.9 -99.99 -9.99
2019/10/17 15:36 EDT    1.61   0.22 -999 -999 -999  57.2  62.1  995.6 -9.9 -9.999 -99.9 -99.99 -9.99
2019/10/17 15:42 EDT    1.51   0.10 -999 -999 -999  57.2  62.1  995.6 -9.9 -9.999 -99.9 -99.99 -9.99
2019/10/17 15:48 EDT    1.42  -0.02 -999 -999 -999  57.4  62.1  995.7 -9.9 -9.999 -99.9 -99.99 -9.99
2019/10/17 15:54 EDT    1.33  -0.15 -999 -999 -999  57.6  62.1  995.8 -9.9 -9.999 -99.9 -99.99 -9.99
2019/10/17 16:00 EDT    1.25  -0.26 -999 -999 -999  58.1  62.1  995.9 -9.9 -9.999 -99.9 -99.99 -9.99
2019/10/17 16:06 EDT    1.17  -0.37 -999 -999 -999  58.1  62.1  996.0 -9.9 -9.999 -99.9 -99.99 -9.99
2019/10/17 16:12 EDT    1.10  -0.48 -999 -999 -999  58.1  62.1  996.1 -9.9 -9.999 -99.9 -99.99 -9.99
2019/10/17 16:18 EDT    1.03  -0.60 -999 -999 -999  58.1  62.1  996.1 -9.9 -9.999 -99.9 -99.99 -9.99
2019/10/17 16:24 EDT    0.96  -0.70 -999 -999 -999  57.9  62.2  996.3 -9.9 -9.999 -99.9 -99.99 -9.99
2019/10/17 16:30 EDT    0.90  -0.78 -999 -999 -999  57.9  62.2  996.4 -9.9 -9.999 -99.9 -99.99 -9.99
2019/10/17 16:36 EDT    0.84  -0.89 -999 -999 -999  57.9  62.2  996.4 -9.9 -9.999 -99.9 -99.99 -9.99
2019/10/17 16:42 EDT    0.78  -0.96 -999 -999 -999  58.1  62.2  996.6 -9.9 -9.999 -99.9 -99.99 -9.99
2019/10/17 16:48 EDT    0.73  -1.04 -999 -999 -999  57.9  62.2  996.6 -9.9 -9.999 -99.9 -99.99 -9.99
2019/10/17 16:54 EDT    0.69  -1.13 -999 -999 -999  57.9  62.2  996.7 -9.9 -9.999 -99.9 -99.99 -9.99
2019/10/17 17:00 EDT    0.65  -1.19 -999 -999 -999  58.3  62.2  996.8 -9.9 -9.999 -99.9 -99.99 -9.99
2019/10/17 17:06 EDT    0.61  -1.26 -999 -999 -999  58.1  62.1  996.8 -9.9 -9.999 -99.9 -99.99 -9.99
2019/10/17 17:12 EDT    0.58  -1.32 -999 -999 -999  57.9  62.1  996.9 -9.9 -9.999 -99.9 -99.99 -9.99
2019/10/17 17:18 EDT    0.55  -1.38 -999 -999 -999  57.9  61.9  996.9 -9.9 -9.999 -99.9 -99.99 -9.99
2019/10/17 17:24 EDT    0.53  -1.41 -999 -999 -999  57.7  61.9  996.9 -9.9 -9.999 -99.9 -99.99 -9.99
2019/10/17 17:30 EDT    0.52  -1.45 -999 -999 -999  57.6  61.7  996.9 -9.9 -9.999 -99.9 -99.99 -9.99
2019/10/17 17:36 EDT    0.51  -1.49 -999 -999 -999  57.4  61.3  997.1 -9.9 -9.999 -99.9 -99.99 -9.99
2019/10/17 17:42 EDT    0.50  -1.50 -999 -999 -999  57.4  61.3  997.1 -9.9 -9.999 -99.9 -99.99 -9.99
2019/10/17 17:48 EDT    0.50  -1.51 -999 -999 -999  57.4  61.0  997.2 -9.9 -9.999 -99.9 -99.99 -9.99
2019/10/17 17:54 EDT    0.51  -1.52 -999 -999 -999  57.4  61.0  997.4 -9.9 -9.999 -99.9 -99.99 -9.99
2019/10/17 18:00 EDT    0.53  -1.50 -999 -999 -999  57.2  60.8  997.6 -9.9 -9.999 -99.9 -99.99 -9.99
2019/10/17 18:06 EDT    0.55  -1.48 -999 -999 -999  57.0  60.6  997.7 -9.9 -9.999 -99.9 -99.99 -9.99
2019/10/17 18:12 EDT    0.57  -1.45 -999 -999 -999  57.2  60.8  997.8 -9.9 -9.999 -99.9 -99.99 -9.99
2019/10/17 18:18 EDT    0.61  -1.41 -999 -999 -999  57.0  60.8  997.9 -9.9 -9.999 -99.9 -99.99 -9.99
2019/10/17 18:24 EDT    0.65  -1.33 -999 -999 -999  57.2  60.6  998.1 -9.9 -9.999 -99.9 -99.99 -9.99
2019/10/17 18:30 EDT    0.70  -1.25 -999 -999 -999  57.2  60.6  998.2 -9.9 -9.999 -99.9 -99.99 -9.99
2019/10/17 18:36 EDT    0.75  -1.14 -999 -999 -999  57.0  60.6  998.3 -9.9 -9.999 -99.9 -99.99 -9.99
2019/10/17 18:42 EDT    0.81  -1.05 -999 -999 -999  57.0  60.8  998.4 -9.9 -9.999 -99.9 -99.99 -9.99
2019/10/17 18:48 EDT    0.88  -0.93 -999 -999 -999  56.8  60.8  998.6 -9.9 -9.999 -99.9 -99.99 -9.99
2019/10/17 18:54 EDT    0.96  -0.81 -999 -999 -999  56.8  60.8  998.7 -9.9 -9.999 -99.9 -99.99 -9.99
2019/10/17 19:00 EDT    1.04  -0.70 -999 -999 -999  56.8  60.6  998.9 -9.9 -9.999 -99.9 -99.99 -9.99
2019/10/17 19:06 EDT    1.13  -0.57 -999 -999 -999  56.7  60.6  999.0 -9.9 -9.999 -99.9 -99.99 -9.99
2019/10/17 19:12 EDT    1.23  -0.42 -999 -999 -999  56.7  60.6  999.1 -9.9 -9.999 -99.9 -99.99 -9.99
2019/10/17 19:18 EDT    1.33  -0.31 -999 -999 -999  56.7  60.6  999.4 -9.9 -9.999 -99.9 -99.99 -9.99
2019/10/17 19:24 EDT    1.44  -0.13 -999 -999 -999  56.5  60.6  999.5 -9.9 -9.999 -99.9 -99.99 -9.99
2019/10/17 19:30 EDT    1.55   0.02 -999 -999 -999  56.5  60.8  999.6 -9.9 -9.999 -99.9 -99.99 -9.99
2019/10/17 19:36 EDT    1.67   0.20 -999 -999 -999 -99.9 -99.9 -999.9 -9.9 -9.999 -99.9 -99.99 -9.99
2019/10/17 19:42 EDT    1.80   0.38 -999 -999 -999  56.5  60.8  999.9 -9.9 -9.999 -99.9 -99.99 -9.99
2019/10/17 19:48 EDT    1.92   0.54 -999 -999 -999  56.3  61.0 1000.0 -9.9 -9.999 -99.9 -99.99 -9.99
2019/10/17 19:54 EDT    2.05   0.70 -999 -999 -999  56.3  61.0 1000.1 -9.9 -9.999 -99.9 -99.99 -9.99
2019/10/17 20:00 EDT    2.19   0.85 -999 -999 -999  56.5  61.0 1000.2 -9.9 -9.999 -99.9 -99.99 -9.99
2019/10/17 20:06 EDT    2.32   1.02 -999 -999 -999  56.3  61.2 1000.3 -9.9 -9.999 -99.9 -99.99 -9.99
2019/10/17 20:12 EDT    2.46   1.16 -999 -999 -999  55.9  61.0 1000.3 -9.9 -9.999 -99.9 -99.99 -9.99
2019/10/17 20:18 EDT    2.60   1.31 -999 -999 -999  55.9  61.2 1000.4 -9.9 -9.999 -99.9 -99.99 -9.99
2019/10/17 20:24 EDT    2.74   1.48 -999 -999 -999  55.8  61.3 1000.5 -9.9 -9.999 -99.9 -99.99 -9.99
2019/10/17 20:30 EDT    2.87   1.62 -999 -999 -999  55.9  61.3 1000.7 -9.9 -9.999 -99.9 -99.99 -9.99
2019/10/17 20:36 EDT    3.01   1.76 -999 -999 -999  55.8  61.3 1000.8 -9.9 -9.999 -99.9 -99.99 -9.99
2019/10/17 20:42 EDT    3.14   1.90 -999 -999 -999  55.8  61.3 1000.9 -9.9 -9.999 -99.9 -99.99 -9.99
2019/10/17 20:48 EDT    3.27   2.02 -999 -999 -999  55.8  61.3 1000.9 -9.9 -9.999 -99.9 -99.99 -9.99
2019/10/17 20:54 EDT    3.40   2.15 -999 -999 -999  55.8  61.3 1001.0 -9.9 -9.999 -99.9 -99.99 -9.99
2019/10/17 21:00 EDT    3.52   2.25 -999 -999 -999  55.6  61.5 1001.1 -9.9 -9.999 -99.9 -99.99 -9.99
2019/10/17 21:06 EDT    3.64   2.37 -999 -999 -999  55.4  61.5 1001.2 -9.9 -9.999 -99.9 -99.99 -9.99
2019/10/17 21:12 EDT    3.75   2.46 -999 -999 -999  55.2  61.5 1001.4 -9.9 -9.999 -99.9 -99.99 -9.99
2019/10/17 21:18 EDT    3.86   2.55 -999 -999 -999  55.4  61.5 1001.5 -9.9 -9.999 -99.9 -99.99 -9.99
2019/10/17 21:24 EDT    3.97   2.64 -999 -999 -999  55.4  61.5 1001.7 -9.9 -9.999 -99.9 -99.99 -9.99
2019/10/17 21:30 EDT    4.06   2.72 -999 -999 -999  55.2  61.5 1001.8 -9.9 -9.999 -99.9 -99.99 -9.99
2019/10/17 21:36 EDT    4.15   2.77 -999 -999 -999  55.6  61.5 1002.0 -9.9 -9.999 -99.9 -99.99 -9.99
2019/10/17 21:42 EDT    4.24   2.83 -999 -999 -999  55.4  61.5 1002.1 -9.9 -9.999 -99.9 -99.99 -9.99
2019/10/17 21:48 EDT    4.31   2.86 -999 -999 -999  55.2  61.5 1002.2 -9.9 -9.999 -99.9 -99.99 -9.99
2019/10/17 21:54 EDT    4.38   2.90 -999 -999 -999  55.4  61.5 1002.3 -9.9 -9.999 -99.9 -99.99 -9.99
2019/10/17 22:00 EDT    4.45   2.93 -999 -999 -999  55.4  61.5 1002.4 -9.9 -9.999 -99.9 -99.99 -9.99
2019/10/17 22:06 EDT    4.51   2.93 -999 -999 -999  55.6  61.5 1002.5 -9.9 -9.999 -99.9 -99.99 -9.99
2019/10/17 22:12 EDT    4.56   2.97 -999 -999 -999  55.4  61.5 1002.7 -9.9 -9.999 -99.9 -99.99 -9.99
2019/10/17 22:18 EDT    4.60   2.98 -999 -999 -999  55.6  61.5 1002.9 -9.9 -9.999 -99.9 -99.99 -9.99
2019/10/17 22:24 EDT    4.64   3.00 -999 -999 -999  55.4  61.5 1003.0 -9.9 -9.999 -99.9 -99.99 -9.99
2019/10/17 22:30 EDT    4.67   2.99 -999 -999 -999  55.2  61.5 1003.2 -9.9 -9.999 -99.9 -99.99 -9.99
2019/10/17 22:36 EDT    4.70   2.97 -999 -999 -999  55.2  61.5 1003.3 -9.9 -9.999 -99.9 -99.99 -9.99
2019/10/17 22:42 EDT    4.72   2.98 -999 -999 -999  55.4  61.3 1003.4 -9.9 -9.999 -99.9 -99.99 -9.99
2019/10/17 22:48 EDT    4.74   2.97 -999 -999 -999  55.4  61.3 1003.5 -9.9 -9.999 -99.9 -99.99 -9.99
2019/10/17 22:54 EDT    4.75   2.97 -999 -999 -999  55.4  61.3 1003.5 -9.9 -9.999 -99.9 -99.99 -9.99
2019/10/17 23:00 EDT    4.75   2.96 -999 -999 -999  55.2  61.3 1003.6 -9.9 -9.999 -99.9 -99.99 -9.99
2019/10/17 23:06 EDT    4.76   2.91 -999 -999 -999  55.2  61.5 1003.7 -9.9 -9.999 -99.9 -99.99 -9.99
2019/10/17 23:12 EDT    4.75   2.92 -999 -999 -999  55.2  61.5 1003.8 -9.9 -9.999 -99.9 -99.99 -9.99
2019/10/17 23:18 EDT    4.75   2.91 -999 -999 -999  54.9  61.5 1003.9 -9.9 -9.999 -99.9 -99.99 -9.99
2019/10/17 23:24 EDT    4.74   2.90 -999 -999 -999  54.7  61.5 1003.9 -9.9 -9.999 -99.9 -99.99 -9.99
2019/10/17 23:30 EDT    4.73   2.87 -999 -999 -999  54.9  61.5 1004.1 -9.9 -9.999 -99.9 -99.99 -9.99
2019/10/17 23:36 EDT    4.71   2.86 -999 -999 -999  55.0  61.5 1004.1 -9.9 -9.999 -99.9 -99.99 -9.99
2019/10/17 23:42 EDT    4.69   2.84 -999 -999 -999  54.9  61.5 1004.2 -9.9 -9.999 -99.9 -99.99 -9.99
2019/10/17 23:48 EDT    4.67   2.83 -999 -999 -999  55.0  61.5 1004.2 -9.9 -9.999 -99.9 -99.99 -9.99
2019/10/17 23:54 EDT    4.64   2.82 -999 -999 -999  54.7  61.5 1004.1 -9.9 -9.999 -99.9 -99.99 -9.99
2019/10/18 00:00 EDT    4.61   2.82 -999 -999 -999  54.9  61.5 1004.2 -9.9 -9.999 -99.9 -99.99 -9.99
2019/10/18 00:06 EDT    4.58   2.79 -999 -999 -999  54.9  61.5 1004.1 -9.9 -9.999 -99.9 -99.99 -9.99
2019/10/18 00:12 EDT    4.55   2.76 -999 -999 -999  54.9  61.5 1004.2 -9.9 -9.999 -99.9 -99.99 -9.99
2019/10/18 00:18 EDT    4.51   2.78 -999 -999 -999  54.9  61.5 1004.3 -9.9 -9.999 -99.9 -99.99 -9.99
2019/10/18 00:24 EDT    4.47   2.76 -999 -999 -999  54.7  61.3 1004.3 -9.9 -9.999 -99.9 -99.99 -9.99
2019/10/18 00:30 EDT    4.43   2.74 -999 -999 -999  54.7  61.3 1004.3 -9.9 -9.999 -99.9 -99.99 -9.99
2019/10/18 00:36 EDT    4.38   2.72 -999 -999 -999  54.5  61.2 1004.4 -9.9 -9.999 -99.9 -99.99 -9.99
2019/10/18 00:42 EDT    4.33   2.72 -999 -999 -999  54.5  61.2 1004.4 -9.9 -9.999 -99.9 -99.99 -9.99
2019/10/18 00:48 EDT    4.28   2.69 -999 -999 -999  54.5  61.2 1004.4 -9.9 -9.999 -99.9 -99.99 -9.99
2019/10/18 00:54 EDT    4.22   2.68 -999 -999 -999  54.3  61.2 1004.5 -9.9 -9.999 -99.9 -99.99 -9.99
2019/10/18 01:00 EDT    4.16   2.65 -999 -999 -999  54.1  61.0 1004.6 -9.9 -9.999 -99.9 -99.99 -9.99
2019/10/18 01:06 EDT    4.09   2.59 -999 -999 -999  54.1  61.0 1004.7 -9.9 -9.999 -99.9 -99.99 -9.99
2019/10/18 01:12 EDT    4.02   2.54 -999 -999 -999  54.1  61.0 1004.7 -9.9 -9.999 -99.9 -99.99 -9.99
2019/10/18 01:18 EDT    3.95   2.49 -999 -999 -999  54.0  61.0 1004.8 -9.9 -9.999 -99.9 -99.99 -9.99
2019/10/18 01:24 EDT    3.87   2.44 -999 -999 -999  54.1  61.0 1004.9 -9.9 -9.999 -99.9 -99.99 -9.99
2019/10/18 01:30 EDT    3.79   2.42 -999 -999 -999  53.8  61.0 1005.0 -9.9 -9.999 -99.9 -99.99 -9.99
2019/10/18 01:36 EDT    3.70   2.35 -999 -999 -999  54.0  61.0 1005.1 -9.9 -9.999 -99.9 -99.99 -9.99
2019/10/18 01:42 EDT    3.61   2.29 -999 -999 -999  54.0  61.0 1005.2 -9.9 -9.999 -99.9 -99.99 -9.99
2019/10/18 01:48 EDT    3.52   2.24 -999 -999 -999  53.8  60.8 1005.2 -9.9 -9.999 -99.9 -99.99 -9.99
2019/10/18 01:54 EDT    3.42   2.19 -999 -999 -999  54.0  60.8 1005.2 -9.9 -9.999 -99.9 -99.99 -9.99
2019/10/18 02:00 EDT    3.32   2.10 -999 -999 -999  53.6  60.8 1005.1 -9.9 -9.999 -99.9 -99.99 -9.99
2019/10/18 02:06 EDT    3.22   2.02 -999 -999 -999  53.6  60.8 1005.1 -9.9 -9.999 -99.9 -99.99 -9.99
2019/10/18 02:12 EDT    3.11   1.95 -999 -999 -999  53.4  60.8 1005.2 -9.9 -9.999 -99.9 -99.99 -9.99
2019/10/18 02:18 EDT    3.00   1.88 -999 -999 -999  53.4  60.6 1005.2 -9.9 -9.999 -99.9 -99.99 -9.99
2019/10/18 02:24 EDT    2.89   1.80 -999 -999 -999  53.4  60.6 1005.2 -9.9 -9.999 -99.9 -99.99 -9.99
2019/10/18 02:30 EDT    2.78   1.72 -999 -999 -999  53.4  60.6 1005.1 -9.9 -9.999 -99.9 -99.99 -9.99
2019/10/18 02:36 EDT    2.67   1.63 -999 -999 -999  53.2  60.6 1005.0 -9.9 -9.999 -99.9 -99.99 -9.99
2019/10/18 02:42 EDT    2.55   1.54 -999 -999 -999  53.2  60.6 1005.0 -9.9 -9.999 -99.9 -99.99 -9.99
2019/10/18 02:48 EDT    2.44   1.45 -999 -999 -999  53.2  60.4 1005.1 -9.9 -9.999 -99.9 -99.99 -9.99
2019/10/18 02:54 EDT    2.32   1.36 -999 -999 -999  53.2  60.4 1005.1 -9.9 -9.999 -99.9 -99.99 -9.99
2019/10/18 03:00 EDT    2.21   1.26 -999 -999 -999  53.1  60.3 1005.0 -9.9 -9.999 -99.9 -99.99 -9.99
2019/10/18 03:06 EDT    2.10   1.18 -999 -999 -999  53.1  60.3 1005.0 -9.9 -9.999 -99.9 -99.99 -9.99
2019/10/18 03:12 EDT    1.99   1.09 -999 -999 -999  52.9  60.1 1005.1 -9.9 -9.999 -99.9 -99.99 -9.99
2019/10/18 03:18 EDT    1.88   0.99 -999 -999 -999  52.9  60.1 1005.1 -9.9 -9.999 -99.9 -99.99 -9.99
2019/10/18 03:24 EDT    1.77   0.89 -999 -999 -999  52.9  60.1 1005.2 -9.9 -9.999 -99.9 -99.99 -9.99
2019/10/18 03:30 EDT    1.67   0.79 -999 -999 -999  52.9  60.1 1005.2 -9.9 -9.999 -99.9 -99.99 -9.99
2019/10/18 03:36 EDT    1.56   0.71 -999 -999 -999  52.9  60.1 1005.2 -9.9 -9.999 -99.9 -99.99 -9.99
2019/10/18 03:42 EDT    1.47   0.65 -999 -999 -999  52.9  60.1 1005.4 -9.9 -9.999 -99.9 -99.99 -9.99
2019/10/18 03:48 EDT    1.37   0.58 -999 -999 -999  52.9  59.9 1005.4 -9.9 -9.999 -99.9 -99.99 -9.99
2019/10/18 03:54 EDT    1.28   0.47 -999 -999 -999  52.7  59.9 1005.4 -9.9 -9.999 -99.9 -99.99 -9.99
2019/10/18 04:00 EDT    1.20   0.40 -999 -999 -999  52.7  59.9 1005.5 -9.9 -9.999 -99.9 -99.99 -9.99
2019/10/18 04:06 EDT    1.12   0.31 -999 -999 -999  52.9  59.9 1005.5 -9.9 -9.999 -99.9 -99.99 -9.99
2019/10/18 04:12 EDT    1.04 -99.99 -999 -999 -999 -99.9 -99.9 -999.9 -9.9 -9.999 -99.9 -99.99 -9.99
2019/10/18 04:18 EDT    0.97 -99.99 -999 -999 -999 -99.9 -99.9 -999.9 -9.9 -9.999 -99.9 -99.99 -9.99
2019/10/18 04:24 EDT    0.90 -99.99 -999 -999 -999 -99.9 -99.9 -999.9 -9.9 -9.999 -99.9 -99.99 -9.99
2019/10/18 04:30 EDT    0.84 -99.99 -999 -999 -999 -99.9 -99.9 -999.9 -9.9 -9.999 -99.9 -99.99 -9.99
2019/10/18 04:36 EDT    0.78 -99.99 -999 -999 -999 -99.9 -99.9 -999.9 -9.9 -9.999 -99.9 -99.99 -9.99
2019/10/18 04:42 EDT    0.73 -99.99 -999 -999 -999 -99.9 -99.9 -999.9 -9.9 -9.999 -99.9 -99.99 -9.99
2019/10/18 04:48 EDT    0.69 -99.99 -999 -999 -999 -99.9 -99.9 -999.9 -9.9 -9.999 -99.9 -99.99 -9.99
2019/10/18 04:54 EDT    0.65 -99.99 -999 -999 -999 -99.9 -99.9 -999.9 -9.9 -9.999 -99.9 -99.99 -9.99
2019/10/18 05:00 EDT    0.61 -99.99 -999 -999 -999 -99.9 -99.9 -999.9 -9.9 -9.999 -99.9 -99.99 -9.99
2019/10/18 05:06 EDT    0.58 -99.99 -999 -999 -999 -99.9 -99.9 -999.9 -9.9 -9.999 -99.9 -99.99 -9.99
2019/10/18 05:12 EDT    0.56 -99.99 -999 -999 -999 -99.9 -99.9 -999.9 -9.9 -9.999 -99.9 -99.99 -9.99
2019/10/18 05:18 EDT    0.54 -99.99 -999 -999 -999 -99.9 -99.9 -999.9 -9.9 -9.999 -99.9 -99.99 -9.99
2019/10/18 05:24 EDT    0.53 -99.99 -999 -999 -999 -99.9 -99.9 -999.9 -9.9 -9.999 -99.9 -99.99 -9.99
2019/10/18 05:30 EDT    0.52 -99.99 -999 -999 -999 -99.9 -99.9 -999.9 -9.9 -9.999 -99.9 -99.99 -9.99
2019/10/18 05:36 EDT    0.52 -99.99 -999 -999 -999 -99.9 -99.9 -999.9 -9.9 -9.999 -99.9 -99.99 -9.99
2019/10/18 05:42 EDT    0.53 -99.99 -999 -999 -999 -99.9 -99.9 -999.9 -9.9 -9.999 -99.9 -99.99 -9.99
2019/10/18 05:48 EDT    0.54 -99.99 -999 -999 -999 -99.9 -99.9 -999.9 -9.9 -9.999 -99.9 -99.99 -9.99
2019/10/18 05:54 EDT    0.55 -99.99 -999 -999 -999 -99.9 -99.9 -999.9 -9.9 -9.999 -99.9 -99.99 -9.99
2019/10/18 06:00 EDT    0.58 -99.99 -999 -999 -999 -99.9 -99.9 -999.9 -9.9 -9.999 -99.9 -99.99 -9.99
2019/10/18 06:06 EDT    0.61 -99.99 -999 -999 -999 -99.9 -99.9 -999.9 -9.9 -9.999 -99.9 -99.99 -9.99
2019/10/18 06:12 EDT    0.64 -99.99 -999 -999 -999 -99.9 -99.9 -999.9 -9.9 -9.999 -99.9 -99.99 -9.99
2019/10/18 06:18 EDT    0.69 -99.99 -999 -999 -999 -99.9 -99.9 -999.9 -9.9 -9.999 -99.9 -99.99 -9.99
2019/10/18 06:24 EDT    0.73 -99.99 -999 -999 -999 -99.9 -99.9 -999.9 -9.9 -9.999 -99.9 -99.99 -9.99
2019/10/18 06:30 EDT    0.79 -99.99 -999 -999 -999 -99.9 -99.9 -999.9 -9.9 -9.999 -99.9 -99.99 -9.99
2019/10/18 06:36 EDT    0.85 -99.99 -999 -999 -999 -99.9 -99.9 -999.9 -9.9 -9.999 -99.9 -99.99 -9.99
2019/10/18 06:42 EDT    0.92 -99.99 -999 -999 -999 -99.9 -99.9 -999.9 -9.9 -9.999 -99.9 -99.99 -9.99
2019/10/18 06:48 EDT    1.00 -99.99 -999 -999 -999 -99.9 -99.9 -999.9 -9.9 -9.999 -99.9 -99.99 -9.99
2019/10/18 06:54 EDT    1.08 -99.99 -999 -999 -999 -99.9 -99.9 -999.9 -9.9 -9.999 -99.9 -99.99 -9.99
2019/10/18 07:00 EDT    1.17 -99.99 -999 -999 -999 -99.9 -99.9 -999.9 -9.9 -9.999 -99.9 -99.99 -9.99
2019/10/18 07:06 EDT    1.26 -99.99 -999 -999 -999 -99.9 -99.9 -999.9 -9.9 -9.999 -99.9 -99.99 -9.99
2019/10/18 07:12 EDT    1.37 -99.99 -999 -999 -999 -99.9 -99.9 -999.9 -9.9 -9.999 -99.9 -99.99 -9.99
2019/10/18 07:18 EDT    1.47 -99.99 -999 -999 -999 -99.9 -99.9 -999.9 -9.9 -9.999 -99.9 -99.99 -9.99
2019/10/18 07:24 EDT    1.59 -99.99 -999 -999 -999 -99.9 -99.9 -999.9 -9.9 -9.999 -99.9 -99.99 -9.99
2019/10/18 07:30 EDT    1.71 -99.99 -999 -999 -999 -99.9 -99.9 -999.9 -9.9 -9.999 -99.9 -99.99 -9.99
2019/10/18 07:36 EDT    1.84 -99.99 -999 -999 -999 -99.9 -99.9 -999.9 -9.9 -9.999 -99.9 -99.99 -9.99
2019/10/18 07:42 EDT    1.97 -99.99 -999 -999 -999 -99.9 -99.9 -999.9 -9.9 -9.999 -99.9 -99.99 -9.99
2019/10/18 07:48 EDT    2.11 -99.99 -999 -999 -999 -99.9 -99.9 -999.9 -9.9 -9.999 -99.9 -99.99 -9.99
2019/10/18 07:54 EDT    2.25 -99.99 -999 -999 -999 -99.9 -99.9 -999.9 -9.9 -9.999 -99.9 -99.99 -9.99
2019/10/18 08:00 EDT    2.39 -99.99 -999 -999 -999 -99.9 -99.9 -999.9 -9.9 -9.999 -99.9 -99.99 -9.99
2019/10/18 08:06 EDT    2.54 -99.99 -999 -999 -999 -99.9 -99.9 -999.9 -9.9 -9.999 -99.9 -99.99 -9.99
2019/10/18 08:12 EDT    2.69 -99.99 -999 -999 -999 -99.9 -99.9 -999.9 -9.9 -9.999 -99.9 -99.99 -9.99
2019/10/18 08:18 EDT    2.84 -99.99 -999 -999 -999 -99.9 -99.9 -999.9 -9.9 -9.999 -99.9 -99.99 -9.99
2019/10/18 08:24 EDT    3.00 -99.99 -999 -999 -999 -99.9 -99.9 -999.9 -9.9 -9.999 -99.9 -99.99 -9.99
2019/10/18 08:30 EDT    3.15 -99.99 -999 -999 -999 -99.9 -99.9 -999.9 -9.9 -9.999 -99.9 -99.99 -9.99
2019/10/18 08:36 EDT    3.31 -99.99 -999 -999 -999 -99.9 -99.9 -999.9 -9.9 -9.999 -99.9 -99.99 -9.99
2019/10/18 08:42 EDT    3.46 -99.99 -999 -999 -999 -99.9 -99.9 -999.9 -9.9 -9.999 -99.9 -99.99 -9.99
2019/10/18 08:48 EDT    3.62 -99.99 -999 -999 -999 -99.9 -99.9 -999.9 -9.9 -9.999 -99.9 -99.99 -9.99
2019/10/18 08:54 EDT    3.77 -99.99 -999 -999 -999 -99.9 -99.9 -999.9 -9.9 -9.999 -99.9 -99.99 -9.99
2019/10/18 09:00 EDT    3.92 -99.99 -999 -999 -999 -99.9 -99.9 -999.9 -9.9 -9.999 -99.9 -99.99 -9.99
2019/10/18 09:06 EDT    4.06 -99.99 -999 -999 -999 -99.9 -99.9 -999.9 -9.9 -9.999 -99.9 -99.99 -9.99
2019/10/18 09:12 EDT    4.20 -99.99 -999 -999 -999 -99.9 -99.9 -999.9 -9.9 -9.999 -99.9 -99.99 -9.99
2019/10/18 09:18 EDT    4.34 -99.99 -999 -999 -999 -99.9 -99.9 -999.9 -9.9 -9.999 -99.9 -99.99 -9.99
2019/10/18 09:24 EDT    4.47 -99.99 -999 -999 -999 -99.9 -99.9 -999.9 -9.9 -9.999 -99.9 -99.99 -9.99
2019/10/18 09:30 EDT    4.59 -99.99 -999 -999 -999 -99.9 -99.9 -999.9 -9.9 -9.999 -99.9 -99.99 -9.99
2019/10/18 09:36 EDT    4.71 -99.99 -999 -999 -999 -99.9 -99.9 -999.9 -9.9 -9.999 -99.9 -99.99 -9.99
2019/10/18 09:42 EDT    4.82 -99.99 -999 -999 -999 -99.9 -99.9 -999.9 -9.9 -9.999 -99.9 -99.99 -9.99
2019/10/18 09:48 EDT    4.93 -99.99 -999 -999 -999 -99.9 -99.9 -999.9 -9.9 -9.999 -99.9 -99.99 -9.99
2019/10/18 09:54 EDT    5.03 -99.99 -999 -999 -999 -99.9 -99.9 -999.9 -9.9 -9.999 -99.9 -99.99 -9.99
2019/10/18 10:00 EDT    5.11 -99.99 -999 -999 -999 -99.9 -99.9 -999.9 -9.9 -9.999 -99.9 -99.99 -9.99
2019/10/18 10:06 EDT    5.20 -99.99 -999 -999 -999 -99.9 -99.9 -999.9 -9.9 -9.999 -99.9 -99.99 -9.99
2019/10/18 10:12 EDT    5.27 -99.99 -999 -999 -999 -99.9 -99.9 -999.9 -9.9 -9.999 -99.9 -99.99 -9.99
2019/10/18 10:18 EDT    5.34 -99.99 -999 -999 -999 -99.9 -99.9 -999.9 -9.9 -9.999 -99.9 -99.99 -9.99
2019/10/18 10:24 EDT    5.39 -99.99 -999 -999 -999 -99.9 -99.9 -999.9 -9.9 -9.999 -99.9 -99.99 -9.99